createdAt,value
2023-02-17T00:00:01.439Z,40.25
2023-02-17T00:05:23.870Z,40.21
2023-02-17T00:10:45.865Z,40.32
2023-02-17T00:16:19.402Z,39.97
2023-02-17T00:21:41.203Z,40.10
2023-02-17T00:27:03.073Z,40.18
2023-02-17T00:32:24.886Z,39.91
2023-02-17T00:37:46.737Z,40.09
2023-02-17T00:43:08.539Z,40.16
2023-02-17T00:48:31.433Z,39.90
2023-02-17T00:53:53.260Z,40.04
2023-02-17T00:59:15.200Z,39.99
2023-02-17T01:04:37.024Z,40.05
2023-02-17T01:09:58.985Z,40.29
2023-02-17T01:15:20.731Z,39.91
2023-02-17T01:20:43.706Z,40.05
2023-02-17T01:26:05.820Z,40.09
2023-02-17T01:31:28.412Z,39.94
2023-02-17T01:36:50.243Z,39.98
2023-02-17T01:42:22.474Z,40.30
2023-02-17T01:47:58.732Z,39.93
2023-02-17T01:53:33.169Z,40.16
2023-02-17T01:59:03.095Z,40.31
2023-02-17T02:04:28.682Z,40.32
2023-02-17T02:09:54.916Z,40.26
2023-02-17T02:15:32.159Z,40.17
2023-02-17T02:20:57.431Z,40.22
2023-02-17T02:26:37.608Z,39.87
2023-02-17T02:32:17.460Z,40.32
2023-02-17T02:37:53.828Z,39.94
2023-02-17T02:43:16.569Z,39.89
2023-02-17T02:48:39.480Z,39.90
2023-02-17T02:54:18.518Z,40.02
2023-02-17T02:59:42.979Z,39.90
2023-02-17T03:05:10.023Z,40.14
2023-02-17T03:10:31.946Z,40.22
2023-02-17T03:15:53.744Z,39.90
2023-02-17T03:21:17.432Z,40.24
2023-02-17T03:26:39.225Z,39.98
2023-02-17T03:32:01.456Z,39.91
2023-02-17T03:37:23.297Z,40.33
2023-02-17T03:42:45.069Z,40.07
2023-02-17T03:48:06.886Z,40.26
2023-02-17T03:53:28.633Z,39.97
2023-02-17T03:58:50.474Z,39.90
2023-02-17T04:04:12.361Z,40.05
2023-02-17T04:09:34.160Z,39.86
2023-02-17T04:14:55.887Z,39.86
2023-02-17T04:20:17.879Z,40.01
2023-02-17T04:25:39.701Z,40.34
2023-02-17T04:31:01.580Z,39.93
2023-02-17T04:36:23.497Z,40.07
2023-02-17T04:41:45.221Z,39.86
2023-02-17T04:47:06.963Z,40.22
2023-02-17T04:52:28.761Z,40.27
2023-02-17T04:57:50.562Z,40.04
2023-02-17T05:03:12.338Z,40.17
2023-02-17T05:08:34.146Z,40.16
2023-02-17T05:13:56.008Z,39.82
2023-02-17T05:19:17.752Z,39.85
2023-02-17T05:24:39.489Z,40.06
2023-02-17T05:30:01.482Z,39.96
2023-02-17T05:35:23.539Z,39.93
2023-02-17T05:40:45.324Z,40.04
2023-02-17T05:46:07.730Z,39.85
2023-02-17T05:51:29.823Z,39.84
2023-02-17T05:56:51.593Z,40.10
2023-02-17T06:02:13.536Z,40.00
2023-02-17T06:07:35.664Z,40.09
2023-02-17T06:12:57.431Z,39.73
2023-02-17T06:18:19.193Z,39.50
2023-02-17T06:23:41.049Z,39.03
2023-02-17T06:29:02.955Z,38.70
2023-02-17T06:34:24.751Z,38.30
2023-02-17T06:39:46.470Z,38.59
2023-02-17T06:45:08.875Z,37.90
2023-02-17T06:50:30.731Z,38.02
2023-02-17T06:55:52.546Z,37.57
2023-02-17T07:01:23.556Z,37.99
2023-02-17T07:06:45.324Z,37.76
2023-02-17T07:12:07.460Z,38.17
2023-02-17T07:17:29.183Z,38.02
2023-02-17T07:22:51.053Z,38.29
2023-02-17T07:28:12.938Z,38.31
2023-02-17T07:33:35.101Z,38.75
2023-02-17T07:38:57.126Z,38.93
2023-02-17T07:44:19.017Z,38.69
2023-02-17T07:49:40.839Z,38.63
2023-02-17T07:55:03.035Z,37.71
2023-02-17T08:00:24.929Z,37.65
2023-02-17T08:05:48.253Z,37.52
2023-02-17T08:11:34.797Z,36.97
2023-02-17T08:16:57.343Z,36.96
2023-02-17T08:22:19.190Z,36.55
2023-02-17T08:27:41.026Z,36.35
2023-02-17T08:33:02.794Z,36.09
2023-02-17T08:38:24.541Z,36.37
2023-02-17T08:43:46.342Z,36.33
2023-02-17T08:49:08.920Z,36.28
2023-02-17T08:54:31.840Z,36.68
2023-02-17T08:59:54.251Z,36.59
2023-02-17T09:05:16.106Z,37.12
2023-02-17T09:10:38.508Z,37.31
2023-02-17T09:16:00.593Z,37.31
2023-02-17T09:21:22.876Z,37.35
2023-02-17T09:26:44.650Z,37.76
2023-02-17T09:32:10.104Z,37.42
2023-02-17T09:37:31.723Z,37.83
2023-02-17T09:42:53.598Z,37.88
2023-02-17T09:48:18.466Z,38.04
2023-02-17T09:53:44.810Z,38.02
2023-02-17T09:59:15.261Z,38.00
2023-02-17T10:04:41.901Z,38.03
2023-02-17T10:10:22.540Z,38.18
2023-02-17T10:15:51.298Z,37.95
2023-02-17T10:21:22.253Z,38.24
2023-02-17T10:27:23.045Z,38.11
2023-02-17T10:33:03.538Z,38.22
2023-02-17T10:38:31.825Z,38.39
2023-02-17T10:43:54.830Z,38.41
2023-02-17T10:49:45.942Z,38.67
2023-02-17T10:55:32.385Z,38.64
2023-02-17T11:00:57.125Z,38.33
2023-02-17T11:06:22.476Z,38.48
2023-02-17T11:11:57.610Z,37.84
2023-02-17T11:17:36.079Z,37.74
2023-02-17T11:23:14.975Z,37.81
2023-02-17T11:28:37.155Z,37.97
2023-02-17T11:33:58.957Z,37.77
2023-02-17T11:39:22.389Z,38.20
2023-02-17T11:44:44.221Z,37.93
2023-02-17T11:50:14.161Z,38.33
2023-02-17T11:55:50.258Z,38.17
2023-02-17T12:01:30.936Z,39.20
2023-02-17T12:07:01.759Z,39.91
2023-02-17T12:12:36.943Z,39.46
2023-02-17T12:18:16.163Z,39.81
2023-02-17T12:24:10.078Z,39.92
2023-02-17T12:29:43.911Z,39.20
2023-02-17T12:35:43.112Z,38.49
2023-02-17T12:41:08.577Z,38.26
2023-02-17T12:46:35.498Z,38.03
2023-02-17T12:51:59.894Z,37.74
2023-02-17T12:57:40.411Z,38.01
2023-02-17T13:03:04.213Z,38.04
2023-02-17T13:08:33.803Z,37.99
2023-02-17T13:13:55.779Z,38.13
2023-02-17T13:19:29.504Z,38.44
2023-02-17T13:24:54.028Z,38.84
2023-02-17T13:30:18.561Z,38.71
2023-02-17T13:35:40.373Z,39.18
2023-02-17T13:41:06.511Z,39.84
2023-02-17T13:46:28.464Z,39.84
2023-02-17T13:51:50.390Z,39.99
2023-02-17T13:57:31.088Z,40.45
2023-02-17T14:03:18.425Z,40.30
2023-02-17T14:08:42.628Z,40.92
2023-02-17T14:14:07.872Z,41.38
2023-02-17T14:19:30.696Z,41.58
2023-02-17T14:25:12.049Z,42.23
2023-02-17T14:30:40.294Z,42.96
2023-02-17T14:36:06.571Z,43.81
2023-02-17T14:41:29.358Z,43.65
2023-02-17T14:46:51.154Z,43.63
2023-02-17T14:52:24.685Z,44.34
2023-02-17T14:57:46.525Z,44.53
2023-02-17T15:03:08.279Z,44.97
2023-02-17T15:08:34.098Z,44.91
2023-02-17T15:13:56.274Z,44.97
2023-02-17T15:19:21.048Z,45.20
2023-02-17T15:24:42.747Z,45.09
2023-02-17T15:30:06.874Z,45.40
2023-02-17T15:35:28.929Z,45.12
2023-02-17T15:40:51.240Z,45.10
2023-02-17T15:46:19.048Z,45.00
2023-02-17T15:51:41.011Z,44.93
2023-02-17T15:57:04.100Z,45.17
2023-02-17T16:02:26.671Z,44.93
2023-02-17T16:07:48.697Z,45.29
2023-02-17T16:13:14.837Z,45.17
2023-02-17T16:18:38.514Z,45.95
2023-02-17T16:24:00.594Z,46.06
2023-02-17T16:29:23.265Z,46.06
2023-02-17T16:34:45.017Z,45.18
2023-02-17T16:40:18.246Z,45.19
2023-02-17T16:46:04.974Z,45.16
2023-02-17T16:51:27.159Z,45.15
2023-02-17T16:56:51.914Z,44.92
2023-02-17T17:02:14.428Z,44.93
2023-02-17T17:07:37.544Z,45.13
2023-02-17T17:13:00.687Z,44.77
2023-02-17T17:18:23.980Z,45.01
2023-02-17T17:23:50.851Z,45.43
2023-02-17T17:29:15.521Z,45.33
2023-02-17T17:34:37.279Z,45.34
2023-02-17T17:39:59.055Z,45.00
2023-02-17T17:45:24.536Z,44.85
2023-02-17T17:50:48.413Z,44.57
2023-02-17T17:56:23.131Z,44.48
2023-02-17T18:01:45.973Z,44.06
2023-02-17T18:07:08.353Z,44.46
2023-02-17T18:12:30.468Z,44.44
2023-02-17T18:17:52.992Z,44.26
2023-02-17T18:23:14.801Z,44.52
2023-02-17T18:28:36.745Z,44.79
2023-02-17T18:33:58.586Z,45.02
2023-02-17T18:39:23.337Z,45.66
2023-02-17T18:44:45.888Z,45.76
2023-02-17T18:50:08.533Z,46.39
2023-02-17T18:55:30.469Z,46.10
2023-02-17T19:00:52.272Z,46.13
2023-02-17T19:06:17.158Z,46.59
2023-02-17T19:11:38.967Z,46.48
2023-02-17T19:17:00.806Z,46.57
2023-02-17T19:22:23.103Z,46.85
2023-02-17T19:27:45.111Z,46.84
2023-02-17T19:33:06.788Z,46.68
2023-02-17T19:38:30.249Z,47.09
2023-02-17T19:43:51.980Z,46.43
2023-02-17T19:49:13.793Z,46.94
2023-02-17T19:54:35.550Z,46.44
2023-02-17T19:59:57.681Z,46.29
2023-02-17T20:05:19.398Z,46.02
2023-02-17T20:10:41.312Z,45.68
2023-02-17T20:16:07.836Z,45.42
2023-02-17T20:21:31.932Z,45.76
2023-02-17T20:26:53.808Z,45.46
2023-02-17T20:32:15.719Z,45.19
2023-02-17T20:37:37.572Z,45.13
2023-02-17T20:43:00.443Z,44.98
2023-02-17T20:48:27.642Z,44.79
2023-02-17T20:53:49.906Z,44.95
2023-02-17T20:59:13.168Z,45.11
2023-02-17T21:04:34.969Z,45.22
2023-02-17T21:09:56.960Z,45.04
2023-02-17T21:15:18.925Z,45.59
2023-02-17T21:20:40.749Z,45.43
2023-02-17T21:26:02.512Z,46.00
2023-02-17T21:31:27.039Z,45.89
2023-02-17T21:36:48.937Z,45.82
2023-02-17T21:42:10.714Z,46.32
2023-02-17T21:47:33.352Z,45.95
2023-02-17T21:52:55.097Z,46.34
2023-02-17T21:58:16.899Z,46.43
2023-02-17T22:03:38.704Z,46.45
2023-02-17T22:09:00.722Z,46.50
2023-02-17T22:14:22.951Z,46.76
2023-02-17T22:19:44.816Z,46.67
2023-02-17T22:25:06.660Z,46.44
2023-02-17T22:30:28.758Z,45.61
2023-02-17T22:36:17.180Z,44.69
2023-02-17T22:41:39.597Z,44.82
2023-02-17T22:47:01.425Z,44.98
2023-02-17T22:52:23.126Z,44.97
2023-02-17T22:57:45.077Z,44.72
2023-02-17T23:03:07.022Z,44.79
2023-02-17T23:08:28.958Z,45.08
2023-02-17T23:13:50.686Z,45.03
2023-02-17T23:19:16.062Z,45.34
2023-02-17T23:24:38.135Z,45.18
2023-02-17T23:29:59.927Z,45.43
2023-02-17T23:35:21.754Z,45.44
2023-02-17T23:40:47.316Z,45.59
2023-02-17T23:46:09.418Z,45.44
2023-02-17T23:51:31.327Z,45.53
2023-02-17T23:56:53.080Z,45.74
